sensor_id;sensor_type;location;lat;lon;timestamp;P1;durP1;ratioP1;P2;durP2;ratioP2
38252;SDS011;24785;52.372;20.672;2023-06-14T00:03:25;11.88;;;7.45;;
38252;SDS011;24785;52.372;20.672;2023-06-14T00:13:26;16.10;;;9.20;;
38252;SDS011;24785;52.372;20.672;2023-06-14T00:23:27;16.02;;;7.35;;
38252;SDS011;24785;52.372;20.672;2023-06-14T00:33:29;19.63;;;7.95;;
38252;SDS011;24785;52.372;20.672;2023-06-14T00:43:30;12.63;;;7.30;;
38252;SDS011;24785;52.372;20.672;2023-06-14T00:53:31;13.40;;;7.00;;
38252;SDS011;24785;52.372;20.672;2023-06-14T01:03:34;14.57;;;7.68;;
38252;SDS011;24785;52.372;20.672;2023-06-14T01:13:36;11.80;;;7.00;;
38252;SDS011;24785;52.372;20.672;2023-06-14T01:23:40;11.88;;;6.55;;
38252;SDS011;24785;52.372;20.672;2023-06-14T01:33:41;12.23;;;7.07;;
38252;SDS011;24785;52.372;20.672;2023-06-14T01:43:42;13.50;;;6.78;;
38252;SDS011;24785;52.372;20.672;2023-06-14T01:53:44;14.25;;;6.82;;
38252;SDS011;24785;52.372;20.672;2023-06-14T02:03:44;25.42;;;10.40;;
38252;SDS011;24785;52.372;20.672;2023-06-14T02:13:47;14.33;;;7.57;;
38252;SDS011;24785;52.372;20.672;2023-06-14T02:23:48;12.75;;;6.88;;
38252;SDS011;24785;52.372;20.672;2023-06-14T02:33:49;12.07;;;6.95;;
38252;SDS011;24785;52.372;20.672;2023-06-14T02:43:49;12.68;;;7.13;;
38252;SDS011;24785;52.372;20.672;2023-06-14T02:53:50;13.57;;;7.00;;
38252;SDS011;24785;52.372;20.672;2023-06-14T03:03:51;15.57;;;6.80;;
38252;SDS011;24785;52.372;20.672;2023-06-14T03:13:52;12.52;;;7.88;;
38252;SDS011;24785;52.372;20.672;2023-06-14T03:23:54;19.63;;;8.85;;
38252;SDS011;24785;52.372;20.672;2023-06-14T03:33:55;14.50;;;7.75;;
38252;SDS011;24785;52.372;20.672;2023-06-14T03:43:55;13.25;;;7.60;;
38252;SDS011;24785;52.372;20.672;2023-06-14T03:53:56;14.50;;;8.20;;
38252;SDS011;24785;52.372;20.672;2023-06-14T04:03:57;22.42;;;7.97;;
38252;SDS011;24785;52.372;20.672;2023-06-14T04:13:58;15.00;;;7.80;;
38252;SDS011;24785;52.372;20.672;2023-06-14T04:24:00;15.60;;;7.65;;
38252;SDS011;24785;52.372;20.672;2023-06-14T04:34:03;10.30;;;6.65;;
38252;SDS011;24785;52.372;20.672;2023-06-14T04:44:06;11.10;;;6.75;;
38252;SDS011;24785;52.372;20.672;2023-06-14T04:54:08;17.48;;;7.25;;
38252;SDS011;24785;52.372;20.672;2023-06-14T05:04:17;13.27;;;8.05;;
38252;SDS011;24785;52.372;20.672;2023-06-14T05:14:19;11.73;;;6.20;;
38252;SDS011;24785;52.372;20.672;2023-06-14T05:24:20;9.55;;;6.07;;
38252;SDS011;24785;52.372;20.672;2023-06-14T05:34:21;13.18;;;6.47;;
38252;SDS011;24785;52.372;20.672;2023-06-14T05:44:22;13.38;;;7.03;;
38252;SDS011;24785;52.372;20.672;2023-06-14T05:54:23;10.18;;;6.35;;
38252;SDS011;24785;52.372;20.672;2023-06-14T06:04:24;12.60;;;7.03;;
38252;SDS011;24785;52.372;20.672;2023-06-14T06:14:26;13.53;;;6.97;;
38252;SDS011;24785;52.372;20.672;2023-06-14T06:24:27;14.40;;;7.30;;
38252;SDS011;24785;52.372;20.672;2023-06-14T06:34:28;14.73;;;7.45;;
38252;SDS011;24785;52.372;20.672;2023-06-14T06:44:29;13.07;;;7.75;;
38252;SDS011;24785;52.372;20.672;2023-06-14T06:54:30;13.20;;;7.32;;
38252;SDS011;24785;52.372;20.672;2023-06-14T07:04:31;14.23;;;7.43;;
38252;SDS011;24785;52.372;20.672;2023-06-14T07:14:32;16.70;;;7.97;;
38252;SDS011;24785;52.372;20.672;2023-06-14T07:24:33;17.13;;;7.93;;
38252;SDS011;24785;52.372;20.672;2023-06-14T07:34:36;12.75;;;8.60;;
38252;SDS011;24785;52.372;20.672;2023-06-14T07:44:37;12.60;;;7.35;;
38252;SDS011;24785;52.372;20.672;2023-06-14T07:54:38;12.85;;;7.28;;
38252;SDS011;24785;52.372;20.672;2023-06-14T08:14:43;10.50;;;6.10;;
38252;SDS011;24785;52.372;20.672;2023-06-14T08:24:44;12.88;;;6.65;;
38252;SDS011;24785;52.372;20.672;2023-06-14T08:34:44;11.32;;;7.28;;
38252;SDS011;24785;52.372;20.672;2023-06-14T08:44:45;14.52;;;5.60;;
38252;SDS011;24785;52.372;20.672;2023-06-14T08:54:46;15.63;;;6.18;;
38252;SDS011;24785;52.372;20.672;2023-06-14T09:04:49;11.15;;;5.18;;
38252;SDS011;24785;52.372;20.672;2023-06-14T09:14:50;9.15;;;5.45;;
38252;SDS011;24785;52.372;20.672;2023-06-14T09:24:51;7.55;;;4.03;;
38252;SDS011;24785;52.372;20.672;2023-06-14T09:34:52;10.43;;;4.88;;
38252;SDS011;24785;52.372;20.672;2023-06-14T09:44:54;11.00;;;4.23;;
38252;SDS011;24785;52.372;20.672;2023-06-14T09:54:56;32.00;;;13.38;;
38252;SDS011;24785;52.372;20.672;2023-06-14T10:05:03;6.88;;;4.35;;
38252;SDS011;24785;52.372;20.672;2023-06-14T10:15:09;7.35;;;4.40;;
38252;SDS011;24785;52.372;20.672;2023-06-14T10:25:28;8.40;;;4.07;;
38252;SDS011;24785;52.372;20.672;2023-06-14T10:35:30;8.73;;;4.05;;
38252;SDS011;24785;52.372;20.672;2023-06-14T10:45:31;10.43;;;5.82;;
38252;SDS011;24785;52.372;20.672;2023-06-14T10:55:34;8.35;;;4.50;;
38252;SDS011;24785;52.372;20.672;2023-06-14T11:05:42;5.35;;;3.10;;
38252;SDS011;24785;52.372;20.672;2023-06-14T11:15:47;10.53;;;4.27;;
38252;SDS011;24785;52.372;20.672;2023-06-14T11:25:52;7.33;;;3.23;;
38252;SDS011;24785;52.372;20.672;2023-06-14T11:35:53;9.68;;;3.70;;
38252;SDS011;24785;52.372;20.672;2023-06-14T11:45:54;7.47;;;3.28;;
38252;SDS011;24785;52.372;20.672;2023-06-14T11:55:55;6.03;;;2.22;;
38252;SDS011;24785;52.372;20.672;2023-06-14T12:06:09;8.05;;;2.80;;
38252;SDS011;24785;52.372;20.672;2023-06-14T12:16:10;5.97;;;2.70;;
38252;SDS011;24785;52.372;20.672;2023-06-14T12:26:13;9.63;;;3.45;;
38252;SDS011;24785;52.372;20.672;2023-06-14T12:36:18;6.05;;;3.55;;
38252;SDS011;24785;52.372;20.672;2023-06-14T12:46:20;7.63;;;3.30;;
38252;SDS011;24785;52.372;20.672;2023-06-14T12:56:21;7.05;;;3.63;;
38252;SDS011;24785;52.372;20.672;2023-06-14T13:06:22;5.68;;;2.50;;
38252;SDS011;24785;52.372;20.672;2023-06-14T13:16:23;3.88;;;2.15;;
38252;SDS011;24785;52.372;20.672;2023-06-14T13:26:24;7.47;;;3.63;;
38252;SDS011;24785;52.372;20.672;2023-06-14T13:36:25;6.65;;;3.03;;
38252;SDS011;24785;52.372;20.672;2023-06-14T13:46:26;8.85;;;4.20;;
38252;SDS011;24785;52.372;20.672;2023-06-14T13:56:27;8.68;;;3.17;;
38252;SDS011;24785;52.372;20.672;2023-06-14T14:06:28;7.30;;;3.50;;
38252;SDS011;24785;52.372;20.672;2023-06-14T14:16:29;9.38;;;3.90;;
38252;SDS011;24785;52.372;20.672;2023-06-14T14:26:30;5.00;;;2.90;;
38252;SDS011;24785;52.372;20.672;2023-06-14T14:36:31;4.35;;;2.53;;
38252;SDS011;24785;52.372;20.672;2023-06-14T14:46:34;5.07;;;2.55;;
38252;SDS011;24785;52.372;20.672;2023-06-14T14:56:36;4.10;;;2.30;;
38252;SDS011;24785;52.372;20.672;2023-06-14T15:06:38;8.07;;;2.40;;
38252;SDS011;24785;52.372;20.672;2023-06-14T15:16:40;4.93;;;2.67;;
38252;SDS011;24785;52.372;20.672;2023-06-14T15:26:41;5.03;;;3.03;;
38252;SDS011;24785;52.372;20.672;2023-06-14T15:36:42;5.00;;;2.55;;
38252;SDS011;24785;52.372;20.672;2023-06-14T15:46:43;8.40;;;2.53;;
38252;SDS011;24785;52.372;20.672;2023-06-14T15:56:44;4.28;;;2.50;;
38252;SDS011;24785;52.372;20.672;2023-06-14T16:16:47;4.47;;;2.00;;
38252;SDS011;24785;52.372;20.672;2023-06-14T16:26:48;6.53;;;2.50;;
38252;SDS011;24785;52.372;20.672;2023-06-14T16:36:51;5.47;;;2.40;;
38252;SDS011;24785;52.372;20.672;2023-06-14T16:46:52;5.73;;;2.27;;
38252;SDS011;24785;52.372;20.672;2023-06-14T16:56:53;6.32;;;2.60;;
38252;SDS011;24785;52.372;20.672;2023-06-14T17:06:54;6.28;;;3.00;;
38252;SDS011;24785;52.372;20.672;2023-06-14T17:16:55;6.68;;;3.08;;
38252;SDS011;24785;52.372;20.672;2023-06-14T17:26:56;7.80;;;3.42;;
38252;SDS011;24785;52.372;20.672;2023-06-14T17:36:57;6.88;;;3.25;;
38252;SDS011;24785;52.372;20.672;2023-06-14T17:46:58;34.47;;;12.38;;
38252;SDS011;24785;52.372;20.672;2023-06-14T17:56:59;20.20;;;5.75;;
38252;SDS011;24785;52.372;20.672;2023-06-14T18:07:00;11.70;;;5.47;;
38252;SDS011;24785;52.372;20.672;2023-06-14T18:17:01;6.50;;;4.10;;
38252;SDS011;24785;52.372;20.672;2023-06-14T18:27:03;9.93;;;4.40;;
38252;SDS011;24785;52.372;20.672;2023-06-14T18:37:05;5.80;;;3.85;;
38252;SDS011;24785;52.372;20.672;2023-06-14T18:47:06;7.20;;;4.72;;
38252;SDS011;24785;52.372;20.672;2023-06-14T18:57:08;5.97;;;3.40;;
38252;SDS011;24785;52.372;20.672;2023-06-14T19:07:09;6.95;;;3.90;;
38252;SDS011;24785;52.372;20.672;2023-06-14T19:17:10;11.07;;;5.97;;
38252;SDS011;24785;52.372;20.672;2023-06-14T19:27:11;11.20;;;5.78;;
38252;SDS011;24785;52.372;20.672;2023-06-14T19:37:12;9.70;;;5.75;;
38252;SDS011;24785;52.372;20.672;2023-06-14T19:47:14;13.37;;;6.03;;
38252;SDS011;24785;52.372;20.672;2023-06-14T19:57:15;8.57;;;5.22;;
38252;SDS011;24785;52.372;20.672;2023-06-14T20:07:16;12.20;;;5.60;;
38252;SDS011;24785;52.372;20.672;2023-06-14T20:17:17;12.45;;;7.18;;
38252;SDS011;24785;52.372;20.672;2023-06-14T20:27:18;13.63;;;6.55;;
38252;SDS011;24785;52.372;20.672;2023-06-14T20:37:19;11.43;;;6.53;;
38252;SDS011;24785;52.372;20.672;2023-06-14T20:47:20;10.00;;;7.22;;
38252;SDS011;24785;52.372;20.672;2023-06-14T20:57:21;10.13;;;6.85;;
38252;SDS011;24785;52.372;20.672;2023-06-14T21:07:22;11.07;;;7.15;;
38252;SDS011;24785;52.372;20.672;2023-06-14T21:17:26;10.25;;;6.32;;
38252;SDS011;24785;52.372;20.672;2023-06-14T21:27:27;13.70;;;7.20;;
38252;SDS011;24785;52.372;20.672;2023-06-14T21:37:28;12.10;;;7.65;;
38252;SDS011;24785;52.372;20.672;2023-06-14T21:47:29;16.95;;;9.60;;
38252;SDS011;24785;52.372;20.672;2023-06-14T21:57:31;14.18;;;8.30;;
38252;SDS011;24785;52.372;20.672;2023-06-14T22:07:31;12.63;;;8.27;;
38252;SDS011;24785;52.372;20.672;2023-06-14T22:17:33;14.35;;;8.88;;
38252;SDS011;24785;52.372;20.672;2023-06-14T22:27:35;14.65;;;9.00;;
38252;SDS011;24785;52.372;20.672;2023-06-14T22:37:41;13.98;;;8.23;;
38252;SDS011;24785;52.372;20.672;2023-06-14T22:47:43;13.27;;;7.97;;
38252;SDS011;24785;52.372;20.672;2023-06-14T22:57:44;17.30;;;8.23;;
38252;SDS011;24785;52.372;20.672;2023-06-14T23:07:46;20.80;;;9.87;;
38252;SDS011;24785;52.372;20.672;2023-06-14T23:17:47;16.48;;;8.90;;
38252;SDS011;24785;52.372;20.672;2023-06-14T23:27:50;17.00;;;8.88;;
38252;SDS011;24785;52.372;20.672;2023-06-14T23:37:51;14.82;;;9.13;;
38252;SDS011;24785;52.372;20.672;2023-06-14T23:47:53;15.13;;;9.05;;
38252;SDS011;24785;52.372;20.672;2023-06-14T23:57:57;16.55;;;9.50;;
